Time;durP1;ratioP1;P1;durP2;ratioP2;P2;SDS_P1;SDS_P2;PMS_P1;PMS_P2;Temp;Humidity;BMP_temperature;BMP_pressure;BME280_temperature;BME280_humidity;BME280_pressure;Samples;Min_cycle;Max_cycle;Signal;HPM_P1;HPM_P2
2021/04/19 00:02:04;;;;;;;4.63;2.80;;;20.70;69.70;;;;;;4974151;28;20351;-65
2021/04/19 00:04:31;;;;;;;7.53;3.20;;;20.80;66.40;;;;;;4973271;28;20023;-64
2021/04/19 00:06:58;;;;;;;5.22;3.00;;;20.90;68.40;;;;;;4973647;28;20070;-62
2021/04/19 00:09:26;;;;;;;3.67;2.83;;;20.90;68.10;;;;;;4973490;28;20118;-64
2021/04/19 00:11:53;;;;;;;5.72;3.05;;;21.00;68.70;;;;;;4973595;28;20126;-64
2021/04/19 00:14:21;;;;;;;6.65;3.35;;;21.00;68.20;;;;;;4973054;28;20121;-66
2021/04/19 00:16:48;;;;;;;4.07;2.60;;;21.10;66.50;;;;;;4973538;28;20506;-62
2021/04/19 00:19:15;;;;;;;8.52;3.20;;;21.20;66.50;;;;;;4973364;28;20030;-64
2021/04/19 00:21:43;;;;;;;5.15;3.00;;;21.30;66.30;;;;;;4973704;28;20029;-61
2021/04/19 00:24:10;;;;;;;4.05;2.65;;;21.20;67.30;;;;;;4974063;28;20043;-64
2021/04/19 00:26:38;;;;;;;8.95;3.22;;;21.30;67.70;;;;;;4974105;28;20102;-61
2021/04/19 00:29:05;;;;;;;3.70;2.80;;;21.40;64.60;;;;;;4973806;28;20425;-63
2021/04/19 00:31:33;;;;;;;6.90;3.10;;;21.50;62.60;;;;;;4974184;28;20027;-65
2021/04/19 00:34:02;;;;;;;3.58;2.60;;;21.60;66.00;;;;;;4974442;28;20035;-67
2021/04/19 00:36:31;;;;;;;4.32;2.63;;;21.60;65.90;;;;;;4974107;28;20034;-66
2021/04/19 00:38:58;;;;;;;11.73;3.72;;;21.70;66.20;;;;;;4974350;28;20043;-65
2021/04/19 00:41:27;;;;;;;6.43;3.38;;;21.80;63.70;;;;;;4973846;28;20394;-65
2021/04/19 00:43:54;;;;;;;6.07;2.88;;;21.80;65.80;;;;;;4974010;28;20428;-62
2021/04/19 00:46:22;;;;;;;14.60;2.97;;;21.90;63.80;;;;;;4973396;28;20089;-64
2021/04/19 00:48:49;;;;;;;6.30;3.08;;;21.90;62.40;;;;;;4974553;28;20509;-62
2021/04/19 00:51:17;;;;;;;4.10;2.90;;;22.00;63.90;;;;;;4974071;28;20027;-66
2021/04/19 00:53:44;;;;;;;14.52;5.97;;;22.10;64.70;;;;;;4973509;28;20382;-64
2021/04/19 00:56:12;;;;;;;5.38;2.75;;;22.10;63.30;;;;;;4973232;28;20089;-63
2021/04/19 00:58:45;;;;;;;8.93;3.78;;;22.20;64.50;;;;;;4973368;28;20045;-67
2021/04/19 01:01:13;;;;;;;3.92;2.67;;;22.20;62.30;;;;;;4973288;28;20031;-64
2021/04/19 01:03:42;;;;;;;6.38;2.80;;;22.10;64.60;;;;;;4972845;28;20413;-63
2021/04/19 01:06:11;;;;;;;4.28;3.05;;;22.00;64.80;;;;;;4955348;28;20034;-64
2021/04/19 01:08:39;;;;;;;4.88;2.70;;;22.20;64.90;;;;;;4972629;28;20114;-63
2021/04/19 01:11:06;;;;;;;6.15;3.05;;;22.30;60.70;;;;;;4972311;28;20027;-65
2021/04/19 01:13:34;;;;;;;4.32;2.60;;;22.40;61.70;;;;;;4972332;28;20027;-65
2021/04/19 01:16:02;;;;;;;5.65;3.25;;;22.40;63.40;;;;;;4972654;28;20043;-62
2021/04/19 01:18:30;;;;;;;6.78;2.92;;;22.40;62.10;;;;;;4972846;28;20580;-66
2021/04/19 01:20:57;;;;;;;9.27;3.40;;;22.50;59.50;;;;;;4975223;28;20034;-63
2021/04/19 01:23:25;;;;;;;11.65;2.60;;;22.60;60.90;;;;;;4976493;28;20425;-62
2021/04/19 01:25:53;;;;;;;5.15;2.67;;;22.60;62.30;;;;;;4976317;28;20446;-67
2021/04/19 01:28:21;;;;;;;5.85;2.58;;;22.50;63.60;;;;;;4976484;28;20055;-64
2021/04/19 01:30:51;;;;;;;3.42;2.30;;;22.60;61.20;;;;;;4976528;28;20031;-68
2021/04/19 01:33:19;;;;;;;4.72;2.95;;;22.70;63.10;;;;;;4976486;28;20027;-67
2021/04/19 01:35:47;;;;;;;3.45;2.67;;;22.70;63.30;;;;;;4976169;28;20086;-64
2021/04/19 01:38:17;;;;;;;5.88;3.00;;;22.70;62.90;;;;;;4975911;28;20019;-68
2021/04/19 01:40:45;;;;;;;8.45;3.33;;;22.70;62.60;;;;;;4976695;28;20063;-65
2021/04/19 01:43:12;;;;;;;6.63;2.80;;;23.00;57.90;;;;;;4976083;28;20030;-69
2021/04/19 01:45:40;;;;;;;7.20;3.08;;;23.00;60.30;;;;;;4974939;28;20106;-67
2021/04/19 01:48:08;;;;;;;5.03;2.80;;;23.10;59.50;;;;;;4954739;28;20477;-64
2021/04/19 01:50:36;;;;;;;4.60;2.50;;;23.20;59.50;;;;;;4965637;28;20054;-65
2021/04/19 01:53:05;;;;;;;7.57;2.47;;;23.20;61.20;;;;;;4974320;28;20110;-65
2021/04/19 01:55:37;;;;;;;7.28;2.78;;;23.30;60.20;;;;;;4969950;28;20045;-62
2021/04/19 01:58:11;;;;;;;4.18;2.70;;;23.30;60.00;;;;;;4971765;28;20517;-61
2021/04/19 02:00:41;;;;;;;6.07;2.92;;;23.40;57.30;;;;;;4971542;28;20041;-68
2021/04/19 02:03:12;;;;;;;5.70;3.17;;;23.40;60.30;;;;;;4957195;28;20401;-62
2021/04/19 02:06:02;;;;;;;10.57;4.05;;;23.40;56.90;;;;;;4971175;28;20030;-61
2021/04/19 02:08:41;;;;;;;5.60;2.75;;;23.50;59.60;;;;;;4972990;28;20038;-62
2021/04/19 02:11:37;;;;;;;6.50;3.22;;;23.40;60.30;;;;;;4971109;28;20454;-62
2021/04/19 02:14:26;;;;;;;3.67;2.58;;;23.50;58.60;;;;;;4971419;28;20472;-60
2021/04/19 02:16:57;;;;;;;5.00;3.05;;;23.60;58.70;;;;;;4969740;28;20401;-60
2021/04/19 02:19:48;;;;;;;4.28;2.40;;;23.60;59.60;;;;;;4973140;28;20170;-71
2021/04/19 02:22:33;;;;;;;6.38;3.10;;;23.40;60.10;;;;;;4972830;28;20099;-63
2021/04/19 02:25:30;;;;;;;4.97;2.97;;;23.40;59.00;;;;;;4969481;28;20151;-66
2021/04/19 02:28:06;;;;;;;3.90;2.80;;;23.60;59.30;;;;;;4972959;28;20449;-61
2021/04/19 02:30:41;;;;;;;4.63;2.78;;;23.70;58.00;;;;;;4970551;28;20054;-60
2021/04/19 02:33:21;;;;;;;4.72;2.72;;;23.70;59.40;;;;;;4971236;28;20035;-63
2021/04/19 02:35:49;;;;;;;8.77;3.90;;;23.70;57.60;;;;;;4968252;28;20042;-63
2021/04/19 02:38:22;;;;;;;5.13;2.75;;;23.90;57.80;;;;;;4973433;28;20022;-65
2021/04/19 02:40:52;;;;;;;5.22;2.72;;;24.00;58.40;;;;;;4972680;28;21300;-66
2021/04/19 02:43:22;;;;;;;3.42;2.72;;;23.90;56.40;;;;;;4973058;28;20066;-64
2021/04/19 02:45:52;;;;;;;6.40;3.00;;;24.00;57.70;;;;;;4952433;28;20039;-65
2021/04/19 02:48:23;;;;;;;4.78;3.05;;;24.00;55.20;;;;;;4971632;28;20031;-66
2021/04/19 02:50:52;;;;;;;4.22;2.80;;;23.90;58.60;;;;;;4973785;28;20130;-63
2021/04/19 02:53:24;;;;;;;10.73;3.65;;;24.00;58.30;;;;;;4974735;28;20031;-66
2021/04/19 02:55:53;;;;;;;23.60;3.15;;;24.10;57.40;;;;;;4972112;28;20393;-57
2021/04/19 02:58:38;;;;;;;15.45;3.53;;;24.40;55.30;;;;;;4973174;28;20485;-54
2021/04/19 03:01:08;;;;;;;13.35;3.05;;;24.50;54.20;;;;;;4974763;28;20474;-61
2021/04/19 03:03:42;;;;;;;24.45;4.10;;;24.60;53.20;;;;;;4974651;28;20505;-60
2021/04/19 03:06:11;;;;;;;24.13;5.28;;;24.80;51.40;;;;;;4974507;28;20022;-61
2021/04/19 03:08:41;;;;;;;21.23;4.55;;;24.90;49.00;;;;;;4974551;28;20023;-61
2021/04/19 03:11:34;;;;;;;16.73;4.38;;;24.90;50.60;;;;;;4974445;28;20026;-59
2021/04/19 03:14:06;;;;;;;16.10;3.47;;;25.00;49.60;;;;;;4974683;28;20030;-62
2021/04/19 03:16:36;;;;;;;15.88;4.10;;;25.20;49.70;;;;;;4975329;28;20043;-66
2021/04/19 03:19:09;;;;;;;19.88;4.90;;;25.30;45.90;;;;;;4975872;28;20081;-65
2021/04/19 03:21:39;;;;;;;16.23;4.18;;;25.40;50.20;;;;;;4958095;28;20030;-61
2021/04/19 03:24:09;;;;;;;15.30;3.97;;;25.40;49.30;;;;;;4973997;28;20034;-66
2021/04/19 03:26:38;;;;;;;13.40;3.70;;;24.80;52.10;;;;;;4974356;28;20027;-64
2021/04/19 03:29:07;;;;;;;14.57;4.32;;;24.50;53.30;;;;;;4974951;28;20073;-66
2021/04/19 03:31:47;;;;;;;12.43;4.15;;;24.50;52.60;;;;;;4974038;28;20023;-67
2021/04/19 03:34:24;;;;;;;9.85;3.92;;;24.50;54.00;;;;;;4970891;28;20042;-72
2021/04/19 03:37:03;;;;;;;8.70;3.17;;;24.50;52.30;;;;;;4971258;28;20042;-65
2021/04/19 03:39:38;;;;;;;11.85;3.83;;;24.70;51.80;;;;;;4971146;28;20113;-69
2021/04/19 03:42:08;;;;;;;13.48;4.13;;;24.80;53.20;;;;;;4972613;28;20129;-67
2021/04/19 03:44:38;;;;;;;12.05;4.18;;;24.90;52.60;;;;;;4971095;28;20084;-66
2021/04/19 03:47:07;;;;;;;10.63;3.28;;;24.90;53.30;;;;;;4970435;28;20014;-67
2021/04/19 03:49:44;;;;;;;15.60;4.07;;;24.90;53.20;;;;;;4972361;28;20081;-64
2021/04/19 03:52:16;;;;;;;14.27;3.78;;;24.90;53.70;;;;;;4969310;28;20035;-62
2021/04/19 03:54:50;;;;;;;9.32;3.60;;;25.20;53.20;;;;;;4971885;28;20207;-63
2021/04/19 03:57:21;;;;;;;11.40;4.18;;;25.40;51.50;;;;;;4968176;28;20031;-63
2021/04/19 03:59:52;;;;;;;16.30;4.25;;;25.40;51.50;;;;;;4972142;28;20050;-67
2021/04/19 04:02:23;;;;;;;8.93;3.85;;;25.40;52.50;;;;;;4971042;28;20034;-63
2021/04/19 04:04:51;;;;;;;8.88;4.13;;;25.40;52.70;;;;;;4971786;28;20113;-60
2021/04/19 04:07:20;;;;;;;10.65;4.22;;;25.40;50.90;;;;;;4967855;28;20536;-64
2021/04/19 04:09:49;;;;;;;14.55;4.05;;;25.60;50.20;;;;;;4972241;28;20038;-64
2021/04/19 04:12:17;;;;;;;9.40;3.53;;;25.80;50.70;;;;;;4971678;28;20054;-66
2021/04/19 04:14:53;;;;;;;10.30;3.97;;;25.70;52.50;;;;;;4954125;28;20031;-64
2021/04/19 04:17:21;;;;;;;13.75;3.70;;;25.60;51.40;;;;;;4967441;28;20042;-65
2021/04/19 04:19:49;;;;;;;8.05;2.97;;;25.80;51.20;;;;;;4972300;28;20374;-61
2021/04/19 04:22:17;;;;;;;9.27;3.67;;;25.60;52.40;;;;;;4971397;28;20038;-59
2021/04/19 04:24:46;;;;;;;11.80;3.45;;;25.80;49.20;;;;;;4971066;28;20400;-62
2021/04/19 04:27:14;;;;;;;14.35;4.63;;;25.90;52.20;;;;;;4966020;28;20031;-66
2021/04/19 04:29:41;;;;;;;4.82;3.03;;;25.80;52.60;;;;;;4971756;28;20027;-63
2021/04/19 04:32:09;;;;;;;11.60;3.90;;;25.80;52.60;;;;;;4971683;28;20354;-63
2021/04/19 04:34:41;;;;;;;8.45;3.60;;;26.00;52.30;;;;;;4970860;28;20023;-64
2021/04/19 04:37:08;;;;;;;9.38;3.08;;;25.80;52.80;;;;;;4966079;28;20045;-65
2021/04/19 04:39:36;;;;;;;14.15;4.10;;;25.90;51.80;;;;;;4971662;28;20035;-65
2021/04/19 04:42:06;;;;;;;6.72;3.30;;;26.00;51.10;;;;;;4971921;28;20158;-65
2021/04/19 04:44:40;;;;;;;7.35;3.10;;;26.10;50.40;;;;;;4970934;28;20031;-65
2021/04/19 04:48:00;;;;;;;8.82;3.15;;;26.10;52.00;;;;;;4964602;28;20031;-66
2021/04/19 04:50:39;;;;;;;7.38;3.10;;;26.20;50.90;;;;;;4930250;29;20055;-64
2021/04/19 04:53:15;;;;;;;9.30;3.83;;;26.10;52.40;;;;;;4966053;28;20043;-63
2021/04/19 04:55:44;;;;;;;6.68;3.58;;;26.10;51.00;;;;;;4972306;28;20122;-60
2021/04/19 04:58:15;;;;;;;8.07;3.80;;;26.10;52.20;;;;;;4962699;28;20035;-63
2021/04/19 05:00:45;;;;;;;12.15;3.92;;;26.00;51.90;;;;;;4975474;28;20026;-61
2021/04/19 05:03:15;;;;;;;13.07;3.38;;;26.10;51.30;;;;;;4974267;28;20485;-67
2021/04/19 05:05:45;;;;;;;6.70;3.20;;;26.10;51.20;;;;;;4975499;28;20041;-64
2021/04/19 05:08:13;;;;;;;11.50;3.65;;;26.20;51.30;;;;;;4969146;28;20441;-62
2021/04/19 05:10:41;;;;;;;10.20;3.70;;;26.10;51.90;;;;;;4972183;28;20058;-67
2021/04/19 05:13:12;;;;;;;14.65;4.68;;;25.90;52.80;;;;;;4974367;28;20018;-69
2021/04/19 05:15:46;;;;;;;14.30;3.50;;;26.00;52.30;;;;;;4972510;28;20031;-68
2021/04/19 05:18:18;;;;;;;9.95;3.75;;;26.00;52.40;;;;;;4968373;28;20106;-63
2021/04/19 05:20:45;;;;;;;;;;;26.00;52.90;;;;;;4975834;28;20054;-64
2021/04/19 05:23:15;;;;;;;12.00;3.70;;;26.00;53.00;;;;;;4971267;28;19906;-62
2021/04/19 05:25:44;;;;;;;9.10;2.90;;;25.90;53.00;;;;;;4974404;28;20042;-60
2021/04/19 05:28:14;;;;;;;7.57;3.20;;;25.90;53.50;;;;;;4969006;28;20019;-62
2021/04/19 05:30:43;;;;;;;9.55;3.78;;;25.90;53.50;;;;;;4974972;28;20042;-55
2021/04/19 05:33:11;;;;;;;7.57;3.00;;;25.90;53.40;;;;;;4974274;28;20045;-61
2021/04/19 05:35:38;;;;;;;9.27;2.85;;;25.90;53.90;;;;;;4974580;28;20045;-61
2021/04/19 05:38:07;;;;;;;7.95;3.28;;;25.80;53.80;;;;;;4970022;28;20035;-66
2021/04/19 05:40:36;;;;;;;9.23;3.17;;;25.80;53.90;;;;;;4974373;28;20023;-63
2021/04/19 05:43:05;;;;;;;9.02;2.63;;;25.80;54.20;;;;;;4973816;28;20027;-67
2021/04/19 05:45:35;;;;;;;4.93;2.65;;;25.70;54.20;;;;;;4974888;28;20413;-65
2021/04/19 05:48:04;;;;;;;8.93;3.33;;;25.60;54.40;;;;;;4975959;28;20132;-66
2021/04/19 05:50:31;;;;;;;7.47;4.03;;;25.60;54.70;;;;;;4976591;28;20578;-64
2021/04/19 05:53:00;;;;;;;4.60;2.55;;;25.50;55.00;;;;;;4977420;28;20030;-67
2021/04/19 05:55:29;;;;;;;5.85;2.80;;;25.50;55.00;;;;;;4976128;28;20042;-67
2021/04/19 05:58:15;;;;;;;7.47;2.85;;;25.50;55.70;;;;;;4976449;28;20492;-66
2021/04/19 06:01:04;;;;;;;7.43;2.97;;;25.50;55.20;;;;;;4975433;28;20030;-66
2021/04/19 06:03:43;;;;;;;7.25;2.63;;;25.50;55.60;;;;;;4976209;28;20045;-65
2021/04/19 06:06:16;;;;;;;6.55;3.13;;;25.40;55.70;;;;;;4974947;28;20038;-64
2021/04/19 06:08:48;;;;;;;6.53;3.00;;;25.30;55.90;;;;;;4975922;28;20470;-65
2021/04/19 06:11:44;;;;;;;7.28;3.30;;;25.30;56.00;;;;;;4975897;28;20030;-64
2021/04/19 06:14:15;;;;;;;6.00;2.90;;;25.20;56.30;;;;;;4967122;28;20462;-64
2021/04/19 06:16:43;;;;;;;7.00;2.83;;;25.20;56.70;;;;;;4975519;28;20373;-63
2021/04/19 06:19:14;;;;;;;4.30;2.42;;;25.10;56.50;;;;;;4975695;28;20107;-66
2021/04/19 06:21:43;;;;;;;5.57;2.77;;;25.10;56.40;;;;;;4975902;28;20144;-65
2021/04/19 06:24:12;;;;;;;5.55;2.53;;;25.20;57.00;;;;;;4975258;28;20031;-65
2021/04/19 06:26:39;;;;;;;5.80;2.90;;;25.10;56.60;;;;;;4975297;28;20565;-65
2021/04/19 06:29:11;;;;;;;5.78;2.92;;;25.00;56.60;;;;;;4975664;28;20035;-63
2021/04/19 06:31:49;;;;;;;5.70;3.35;;;25.00;57.30;;;;;;4958039;28;20461;-71
2021/04/19 06:34:20;;;;;;;4.47;2.22;;;24.90;57.40;;;;;;4975160;28;20019;-65
2021/04/19 06:36:49;;;;;;;5.43;2.80;;;24.80;57.70;;;;;;4975510;28;20485;-66
2021/04/19 06:39:19;;;;;;;6.10;2.75;;;24.80;58.10;;;;;;4975184;28;20373;-64
2021/04/19 06:41:47;;;;;;;5.82;3.35;;;24.70;58.20;;;;;;4975165;28;20444;-68
2021/04/19 06:44:15;;;;;;;6.53;2.50;;;24.50;58.20;;;;;;4975194;28;20034;-65
2021/04/19 06:46:45;;;;;;;6.90;2.85;;;24.40;58.80;;;;;;4966364;28;20114;-66
2021/04/19 06:49:13;;;;;;;10.73;3.15;;;24.30;59.30;;;;;;4971048;28;20478;-68
2021/04/19 06:51:43;;;;;;;9.25;2.83;;;24.10;59.60;;;;;;4956565;28;20073;-65
2021/04/19 06:54:12;;;;;;;5.40;2.88;;;24.00;60.10;;;;;;4970974;28;20055;-64
2021/04/19 06:56:42;;;;;;;7.90;2.63;;;23.90;60.30;;;;;;4972174;28;20054;-65
2021/04/19 06:59:18;;;;;;;4.32;2.33;;;23.70;60.80;;;;;;4972577;28;20023;-72
2021/04/19 07:01:50;;;;;;;7.90;2.50;;;23.60;61.10;;;;;;4974365;28;20027;-72
2021/04/19 07:04:28;;;;;;;5.88;2.90;;;23.40;61.80;;;;;;4973001;28;20023;-63
2021/04/19 07:06:58;;;;;;;8.75;2.50;;;23.40;62.30;;;;;;4970449;28;20050;-69
2021/04/19 07:09:28;;;;;;;5.13;3.22;;;23.20;62.70;;;;;;4955650;28;20027;-70
2021/04/19 07:12:17;;;;;;;9.95;3.60;;;23.10;63.40;;;;;;4973520;28;20486;-64
2021/04/19 07:14:52;;;;;;;7.28;2.65;;;23.00;63.60;;;;;;4973330;28;20038;-70
2021/04/19 07:17:20;;;;;;;12.50;3.00;;;23.00;63.70;;;;;;4968207;28;20034;-68
2021/04/19 07:19:48;;;;;;;6.50;3.40;;;22.90;64.40;;;;;;4973497;28;20113;-69
2021/04/19 07:22:21;;;;;;;7.47;3.67;;;22.80;64.40;;;;;;4970712;28;20042;-69
2021/04/19 07:24:49;;;;;;;5.00;3.42;;;22.80;64.60;;;;;;4953922;28;20656;-64
2021/04/19 07:27:17;;;;;;;5.03;2.47;;;22.80;65.00;;;;;;4967847;28;20035;-65
2021/04/19 07:29:45;;;;;;;5.50;2.10;;;22.70;65.00;;;;;;4973010;28;20033;-65
2021/04/19 07:32:14;;;;;;;9.23;4.53;;;22.70;65.10;;;;;;4972609;28;20118;-61
2021/04/19 07:34:41;;;;;;;6.15;2.95;;;22.60;65.80;;;;;;4973246;28;20090;-63
2021/04/19 07:37:12;;;;;;;4.75;2.53;;;22.50;65.90;;;;;;4965807;28;20692;-64
2021/04/19 07:39:42;;;;;;;7.10;2.78;;;22.50;66.10;;;;;;4948795;28;20114;-64
2021/04/19 07:42:12;;;;;;;5.03;3.13;;;22.50;66.00;;;;;;4971871;28;20030;-70
2021/04/19 07:44:45;;;;;;;4.35;2.40;;;22.40;66.30;;;;;;4972876;28;20320;-64
2021/04/19 07:47:18;;;;;;;5.70;2.80;;;22.40;66.50;;;;;;4965875;28;20041;-62
2021/04/19 07:49:59;;;;;;;6.00;2.55;;;22.40;66.60;;;;;;4972360;28;20047;-62
2021/04/19 07:52:29;;;;;;;5.68;3.05;;;22.30;66.60;;;;;;4953508;28;20027;-63
2021/04/19 07:55:05;;;;;;;5.38;2.33;;;22.30;66.90;;;;;;4972200;28;20138;-68
2021/04/19 07:57:33;;;;;;;8.55;3.08;;;22.30;67.00;;;;;;4974075;28;20030;-65
2021/04/19 08:00:01;;;;;;;9.75;3.75;;;22.20;67.70;;;;;;4972195;28;20422;-66
2021/04/19 08:03:22;;;;;;;6.68;3.25;;;21.70;69.50;;;;;;4970112;28;20121;-65
2021/04/19 08:05:39;;;;;;;18.80;3.67;;;21.70;69.80;;;;;;4966583;28;20053;-66
2021/04/19 08:08:12;;;;;;;7.53;2.75;;;21.40;70.80;;;;;;4974191;28;20042;-66
2021/04/19 08:10:43;;;;;;;13.73;4.05;;;21.20;71.90;;;;;;4952821;28;20057;-68
2021/04/19 08:13:19;;;;;;;8.23;3.63;;;21.20;72.30;;;;;;4956752;28;20408;-67
2021/04/19 08:15:54;;;;;;;7.18;3.65;;;21.20;72.50;;;;;;4974131;28;20127;-69
2021/04/19 08:18:22;;;;;;;8.70;4.55;;;21.10;73.10;;;;;;4956671;28;20051;-68
2021/04/19 08:20:52;;;;;;;12.60;4.75;;;21.20;72.70;;;;;;4973998;28;20358;-69
2021/04/19 08:23:22;;;;;;;15.27;10.95;;;21.20;73.10;;;;;;4966314;28;20130;-62
2021/04/19 08:25:52;;;;;;;38.80;30.60;;;21.30;72.50;;;;;;4968989;28;20057;-63
2021/04/19 08:28:22;;;;;;;32.88;24.45;;;21.50;72.00;;;;;;4970618;28;20035;-63
2021/04/19 08:30:54;;;;;;;55.38;41.90;;;21.60;71.60;;;;;;4954385;28;20035;-67
2021/04/19 08:33:22;;;;;;;56.42;44.35;;;21.60;71.30;;;;;;4970309;28;20023;-62
2021/04/19 08:35:52;;;;;;;37.72;31.60;;;21.70;71.20;;;;;;4971415;28;20142;-69
2021/04/19 08:38:21;;;;;;;29.83;24.90;;;21.70;71.20;;;;;;4971515;28;20031;-64
2021/04/19 08:40:51;;;;;;;27.30;19.23;;;21.80;71.00;;;;;;4969925;28;20467;-65
2021/04/19 08:43:27;;;;;;;23.88;13.98;;;21.80;71.80;;;;;;4965422;28;20026;-67
2021/04/19 08:45:56;;;;;;;15.45;8.40;;;21.80;71.00;;;;;;4969992;28;20023;-63
2021/04/19 08:48:24;;;;;;;16.23;7.05;;;21.80;71.10;;;;;;4967701;28;20049;-66
2021/04/19 08:50:53;;;;;;;21.20;6.60;;;21.90;71.40;;;;;;4963661;28;20047;-63
2021/04/19 08:53:21;;;;;;;13.73;6.30;;;21.90;71.40;;;;;;4971228;28;20019;-63
2021/04/19 08:55:50;;;;;;;16.25;6.07;;;21.90;71.60;;;;;;4968035;28;20039;-60
2021/04/19 08:58:19;;;;;;;20.23;6.35;;;22.00;71.70;;;;;;4967836;28;20038;-61
2021/04/19 09:00:53;;;;;;;19.90;6.18;;;22.00;72.00;;;;;;4953742;28;20031;-62
2021/04/19 09:03:22;;;;;;;65.95;51.90;;;22.00;72.00;;;;;;4952164;29;20055;-64
2021/04/19 09:05:50;;;;;;;36.17;24.10;;;22.00;72.20;;;;;;4956319;28;20027;-65
2021/04/19 09:08:22;;;;;;;51.05;39.00;;;22.00;72.40;;;;;;4973157;28;20528;-67
2021/04/19 09:10:53;;;;;;;62.13;51.33;;;21.90;72.30;;;;;;4973023;28;20389;-63
2021/04/19 09:13:29;;;;;;;62.88;52.22;;;21.90;72.60;;;;;;4973251;28;20030;-66
2021/04/19 09:16:12;;;;;;;68.13;57.88;;;21.80;72.80;;;;;;4973730;28;20039;-66
2021/04/19 09:18:43;;;;;;;66.85;49.75;;;21.80;73.10;;;;;;4973555;28;20033;-66
2021/04/19 09:21:30;;;;;;;69.70;56.58;;;21.80;73.10;;;;;;4972837;28;20033;-65
2021/04/19 09:23:57;;;;;;;80.72;66.25;;;21.80;73.20;;;;;;4972940;28;20027;-65
2021/04/19 09:26:55;;;;;;;55.28;47.85;;;21.80;74.30;;;;;;4973153;28;20034;-65
2021/04/19 09:29:28;;;;;;;73.75;57.78;;;21.80;74.40;;;;;;4971853;28;20085;-69
2021/04/19 09:32:08;;;;;;;62.90;50.33;;;21.70;74.20;;;;;;4973109;28;20085;-68
2021/04/19 09:34:53;;;;;;;100.55;89.30;;;21.70;74.20;;;;;;4959433;28;20062;-69
2021/04/19 09:37:23;;;;;;;33.20;22.77;;;21.80;75.10;;;;;;4953942;29;20401;-62
2021/04/19 09:40:02;;;;;;;31.95;25.20;;;21.70;76.40;;;;;;4953699;28;20054;-68
2021/04/19 09:42:55;;;;;;;32.08;18.83;;;21.70;75.90;;;;;;4956788;29;20031;-65
2021/04/19 09:45:49;;;;;;;27.00;14.90;;;21.70;75.50;;;;;;4949610;29;20042;-66
2021/04/19 09:48:29;;;;;;;20.85;17.10;;;21.60;75.40;;;;;;4954565;29;20038;-63
2021/04/19 09:51:03;;;;;;;46.60;26.73;;;21.60;75.70;;;;;;4957125;29;20494;-66
2021/04/19 09:53:31;;;;;;;31.73;15.27;;;21.60;77.30;;;;;;4957478;29;20023;-66
2021/04/19 09:55:59;;;;;;;26.55;10.93;;;21.70;77.10;;;;;;4956763;29;20046;-63
2021/04/19 09:58:27;;;;;;;32.20;10.70;;;21.70;78.50;;;;;;4956787;29;20038;-62
2021/04/19 10:00:59;;;;;;;27.77;10.38;;;21.60;78.80;;;;;;4956848;29;20043;-67
2021/04/19 10:03:27;;;;;;;17.38;8.15;;;21.70;81.10;;;;;;4940936;29;20023;-66
2021/04/19 10:05:59;;;;;;;28.17;9.30;;;21.70;78.40;;;;;;4958001;29;20035;-65
2021/04/19 10:08:27;;;;;;;20.50;7.32;;;21.80;81.10;;;;;;4940954;29;20374;-67
2021/04/19 10:10:58;;;;;;;16.17;7.70;;;21.80;79.90;;;;;;4957624;29;20486;-69
2021/04/19 10:13:28;;;;;;;17.23;9.30;;;21.80;81.80;;;;;;4965801;28;20389;-69
2021/04/19 10:16:02;;;;;;;13.45;7.00;;;21.80;82.90;;;;;;4977146;28;20117;-68
2021/04/19 10:18:32;;;;;;;16.73;6.60;;;21.90;82.60;;;;;;4977156;28;20027;-68
2021/04/19 10:20:59;;;;;;;17.83;6.13;;;21.90;82.70;;;;;;4976423;28;20031;-68
2021/04/19 10:23:43;;;;;;;16.65;6.95;;;21.80;81.20;;;;;;4976353;28;20026;-67
2021/04/19 10:26:11;;;;;;;26.17;7.95;;;21.90;82.70;;;;;;4976090;28;20034;-64
2021/04/19 10:28:41;;;;;;;17.80;6.40;;;21.90;83.30;;;;;;4975939;28;20026;-66
2021/04/19 10:31:21;;;;;;;13.73;6.50;;;21.90;81.90;;;;;;4976244;28;20037;-63
2021/04/19 10:33:51;;;;;;;17.75;7.90;;;21.90;83.20;;;;;;4976663;28;20023;-66
2021/04/19 10:36:20;;;;;;;38.08;8.63;;;21.90;83.30;;;;;;4976581;28;20031;-65
2021/04/19 10:38:53;;;;;;;20.45;6.43;;;22.00;85.10;;;;;;4976221;28;20058;-68
2021/04/19 10:41:34;;;;;;;17.80;6.10;;;22.00;83.20;;;;;;4958830;28;20117;-64
2021/04/19 10:44:06;;;;;;;12.73;6.75;;;21.90;82.00;;;;;;4976045;28;20033;-67
2021/04/19 10:46:36;;;;;;;21.15;5.25;;;21.80;82.70;;;;;;4976139;28;20049;-62
2021/04/19 10:49:04;;;;;;;11.10;5.25;;;21.80;83.20;;;;;;4974349;28;20573;-62
2021/04/19 10:51:34;;;;;;;19.10;5.38;;;21.70;82.30;;;;;;4964069;28;20464;-64
2021/04/19 10:54:07;;;;;;;22.13;6.15;;;21.70;81.80;;;;;;4968503;28;20034;-66
2021/04/19 10:56:39;;;;;;;12.48;5.68;;;21.70;81.10;;;;;;4968226;28;20054;-59
2021/04/19 10:59:10;;;;;;;13.10;5.93;;;21.70;82.20;;;;;;4969861;28;20023;-60
2021/04/19 11:01:42;;;;;;;11.90;5.15;;;21.70;82.00;;;;;;4971411;28;20486;-68
2021/04/19 11:04:12;;;;;;;15.88;6.00;;;21.70;82.10;;;;;;4971918;28;20027;-63
2021/04/19 11:06:40;;;;;;;14.05;5.93;;;21.60;81.30;;;;;;4968812;28;20031;-59
2021/04/19 11:09:16;;;;;;;10.95;5.22;;;21.70;81.40;;;;;;4971261;28;20023;-58
2021/04/19 11:11:50;;;;;;;12.80;6.00;;;21.60;81.00;;;;;;4972345;28;20380;-64
2021/04/19 11:14:25;;;;;;;15.45;5.55;;;21.60;81.00;;;;;;4969174;28;20516;-64
2021/04/19 11:16:57;;;;;;;12.60;5.20;;;21.70;80.80;;;;;;4965705;28;20048;-67
2021/04/19 11:19:35;;;;;;;;;;;21.60;80.70;;;;;;4972170;28;20122;-65
2021/04/19 11:22:21;;;;;;;12.63;5.47;;;21.60;80.50;;;;;;4969591;28;19969;-65
2021/04/19 11:24:49;;;;;;;13.05;6.30;;;21.50;80.20;;;;;;4971248;28;20163;-62
2021/04/19 11:27:26;;;;;;;12.23;5.22;;;21.60;80.00;;;;;;4967639;28;20063;-63
2021/04/19 11:29:54;;;;;;;14.43;5.47;;;21.60;80.10;;;;;;4971923;28;20022;-62
2021/04/19 11:33:00;;;;;;;12.82;5.00;;;21.50;80.20;;;;;;4971103;28;20030;-56
2021/04/19 11:35:34;;;;;;;10.85;4.93;;;21.50;80.30;;;;;;4970416;28;20039;-63
2021/04/19 11:38:04;;;;;;;9.27;5.60;;;21.40;80.10;;;;;;4951972;28;20049;-56
2021/04/19 11:40:34;;;;;;;13.80;5.53;;;21.40;79.70;;;;;;4954511;28;20038;-59
2021/04/19 11:43:21;;;;;;;12.52;5.28;;;21.40;79.30;;;;;;4969908;28;20114;-59
2021/04/19 11:46:02;;;;;;;8.20;5.03;;;21.50;79.00;;;;;;4965634;28;20567;-59
2021/04/19 11:48:32;;;;;;;14.65;5.35;;;21.40;78.50;;;;;;4970409;28;20106;-58
2021/04/19 11:51:00;;;;;;;9.05;4.57;;;21.40;78.50;;;;;;4970737;28;20041;-59
2021/04/19 11:53:33;;;;;;;11.50;4.88;;;21.40;78.40;;;;;;4970900;28;20115;-59
2021/04/19 11:56:03;;;;;;;14.25;4.90;;;21.40;78.60;;;;;;4966643;28;20051;-63
2021/04/19 11:58:31;;;;;;;10.93;4.90;;;21.30;78.70;;;;;;4970807;28;20022;-57
2021/04/19 12:00:59;;;;;;;8.00;4.93;;;21.40;78.40;;;;;;4971059;28;20118;-64
2021/04/19 12:03:27;;;;;;;7.10;5.20;;;21.30;78.20;;;;;;4969644;28;20558;-58
2021/04/19 12:05:55;;;;;;;8.43;5.07;;;21.30;78.40;;;;;;4964329;28;21189;-60
2021/04/19 12:08:23;;;;;;;9.93;4.40;;;21.30;78.20;;;;;;4971080;28;20073;-54
2021/04/19 12:10:51;;;;;;;10.02;4.68;;;21.30;77.50;;;;;;4970834;28;20031;-57
2021/04/19 12:13:19;;;;;;;10.48;5.47;;;21.20;78.30;;;;;;4967747;28;20758;-59
2021/04/19 12:15:48;;;;;;;12.65;5.30;;;21.20;78.30;;;;;;4967581;28;20039;-52
2021/04/19 12:18:16;;;;;;;8.75;4.55;;;21.20;78.20;;;;;;4971209;28;20034;-62
2021/04/19 12:20:43;;;;;;;10.32;4.32;;;21.20;78.30;;;;;;4969680;28;20031;-62
2021/04/19 12:23:11;;;;;;;10.00;4.35;;;21.20;78.40;;;;;;4970794;28;20045;-62
2021/04/19 12:25:38;;;;;;;12.35;4.72;;;21.20;78.40;;;;;;4968864;28;20106;-61
2021/04/19 12:28:06;;;;;;;10.77;4.60;;;21.10;78.40;;;;;;4969112;28;20034;-58
2021/04/19 12:30:34;;;;;;;9.65;4.68;;;21.10;78.30;;;;;;4970884;28;20077;-61
2021/04/19 12:33:01;;;;;;;6.63;3.90;;;21.10;78.20;;;;;;4970941;28;20050;-64
2021/04/19 12:35:30;;;;;;;7.97;4.95;;;21.00;78.30;;;;;;4971139;28;20063;-65
2021/04/19 12:37:58;;;;;;;6.90;4.38;;;21.10;78.40;;;;;;4951057;28;20082;-66
2021/04/19 12:40:28;;;;;;;6.38;4.18;;;21.00;78.40;;;;;;4970579;28;20113;-64
2021/04/19 12:42:58;;;;;;;7.22;3.90;;;21.00;78.30;;;;;;4964957;28;20430;-64
2021/04/19 12:45:31;;;;;;;7.68;4.72;;;21.00;78.40;;;;;;4970310;28;20102;-58
2021/04/19 12:48:00;;;;;;;7.90;4.32;;;21.00;78.40;;;;;;4967901;28;20038;-61
2021/04/19 12:50:30;;;;;;;8.68;4.53;;;20.90;78.30;;;;;;4970685;28;20094;-61
2021/04/19 12:53:01;;;;;;;10.32;4.82;;;20.90;78.30;;;;;;4969574;28;20019;-60
2021/04/19 12:55:28;;;;;;;8.57;4.40;;;20.90;78.30;;;;;;4967391;28;20402;-59
2021/04/19 12:57:57;;;;;;;6.95;4.53;;;20.90;78.90;;;;;;4964788;28;20085;-59
2021/04/19 13:00:26;;;;;;;7.05;4.43;;;20.90;78.30;;;;;;4969004;28;20023;-59
2021/04/19 13:02:53;;;;;;;10.82;4.22;;;20.90;78.30;;;;;;4966905;28;20043;-61
2021/04/19 13:05:21;;;;;;;6.70;4.25;;;20.80;78.20;;;;;;4970009;28;20093;-60